createdAt,value
2019-04-28T00:05:11.374Z,66.34
2019-04-28T00:20:37.065Z,66.54
2019-04-28T00:35:46.655Z,66.49
2019-04-28T00:50:53.882Z,66.57
2019-04-28T01:06:01.873Z,66.71
2019-04-28T01:21:10.679Z,66.89
2019-04-28T01:36:17.780Z,66.80
2019-04-28T01:51:24.848Z,66.97
2019-04-28T02:06:31.957Z,67.08
2019-04-28T02:21:42.877Z,67.22
2019-04-28T02:36:53.845Z,67.37
2019-04-28T02:52:17.465Z,67.39
2019-04-28T03:07:27.017Z,67.41
2019-04-28T03:22:34.145Z,67.23
2019-04-28T03:37:43.583Z,67.24
2019-04-28T03:52:51.264Z,67.50
2019-04-28T04:08:00.590Z,67.42
2019-04-28T04:23:07.795Z,67.38
2019-04-28T04:38:16.550Z,67.65
2019-04-28T04:53:23.326Z,67.80
2019-04-28T05:08:31.090Z,67.83
2019-04-28T05:23:42.639Z,67.43
2019-04-28T05:38:49.740Z,67.17
2019-04-28T05:54:01.408Z,65.89
2019-04-28T06:09:10.290Z,65.89
2019-04-28T06:24:17.058Z,65.82
2019-04-28T06:39:24.914Z,65.98
2019-04-28T06:54:32.043Z,64.69
2019-04-28T07:09:39.790Z,64.86
2019-04-28T07:24:46.623Z,64.54
2019-04-28T07:39:56.678Z,65.49
2019-04-28T07:55:02.750Z,64.29
2019-04-28T08:10:10.962Z,64.60
2019-04-28T08:25:18.061Z,64.74
2019-04-28T08:40:25.502Z,65.40
2019-04-28T08:55:34.750Z,64.58
2019-04-28T09:10:43.052Z,64.50
2019-04-28T09:25:51.274Z,65.31
2019-04-28T09:40:58.497Z,65.19
2019-04-28T09:56:08.099Z,64.99
2019-04-28T10:11:15.349Z,64.42
2019-04-28T10:26:22.605Z,64.58
2019-04-28T10:41:33.488Z,64.21
2019-04-28T10:56:40.707Z,63.85
2019-04-28T11:11:48.198Z,63.94
2019-04-28T11:26:55.456Z,63.46
2019-04-28T11:42:02.854Z,63.46
2019-04-28T11:57:15.977Z,63.27
2019-04-28T12:12:26.272Z,63.57
2019-04-28T12:43:01.027Z,64.28
2019-04-28T12:58:08.478Z,63.96
2019-04-28T13:13:16.823Z,64.34
2019-04-28T13:28:25.341Z,64.60
2019-04-28T13:43:31.427Z,65.17
2019-04-28T13:58:40.139Z,64.76
2019-04-28T14:13:47.346Z,64.62
2019-04-28T14:28:56.269Z,64.81
2019-04-28T14:44:05.925Z,65.15
2019-04-28T14:59:14.061Z,63.96
2019-04-28T15:14:21.420Z,63.65
2019-04-28T15:29:28.530Z,64.77
2019-04-28T15:44:38.311Z,64.92
2019-04-28T15:59:47.700Z,64.68
2019-04-28T16:28:47.215Z,65.50
2019-04-28T16:59:42.360Z,63.43
2019-04-28T17:14:50.032Z,64.32
2019-04-28T17:30:17.509Z,65.85
2019-04-28T17:45:26.431Z,65.72
2019-04-28T18:00:33.513Z,66.30
2019-04-28T18:15:57.281Z,66.74
2019-04-28T18:31:07.331Z,66.71
2019-04-28T18:46:17.720Z,66.82
2019-04-28T19:01:32.431Z,66.72
2019-04-28T19:17:00.674Z,67.04
2019-04-28T19:32:08.717Z,67.56
2019-04-28T19:47:18.121Z,68.08
2019-04-28T20:02:43.051Z,68.02
2019-04-28T20:17:50.291Z,68.33
2019-04-28T20:50:28.789Z,68.60
2019-04-28T21:05:36.581Z,68.64
2019-04-28T21:20:44.310Z,68.91
2019-04-28T21:36:11.835Z,68.71
2019-04-28T21:51:21.827Z,68.66
2019-04-28T22:06:28.851Z,68.75
2019-04-28T22:21:36.807Z,68.87
2019-04-28T22:36:45.750Z,68.54
2019-04-28T22:51:52.913Z,68.77
2019-04-28T23:07:01.181Z,69.05
2019-04-28T23:22:09.113Z,69.25
2019-04-28T23:37:15.926Z,69.42
2019-04-28T23:52:24.684Z,69.46
